createdAt,value
2022-09-01T00:01:30.120Z,101568.00
2022-09-01T00:04:04.165Z,101562.66
2022-09-01T00:06:34.820Z,101560.88
2022-09-01T00:09:05.374Z,101559.13
2022-09-01T00:11:35.059Z,101568.03
2022-09-01T00:14:03.713Z,101563.59
2022-09-01T00:16:32.915Z,101555.59
2022-09-01T00:19:02.715Z,101563.66
2022-09-01T00:21:34.487Z,101570.75
2022-09-01T00:24:02.735Z,101569.88
2022-09-01T00:26:30.480Z,101565.44
2022-09-01T00:28:59.664Z,101562.78
2022-09-01T00:31:27.854Z,101566.38
2022-09-01T00:33:56.170Z,101566.38
2022-09-01T00:36:24.586Z,101563.72
2022-09-01T00:38:53.094Z,101570.84
2022-09-01T00:41:24.452Z,101568.16
2022-09-01T00:43:54.588Z,101567.28
2022-09-01T00:46:29.016Z,101564.63
2022-09-01T00:48:59.896Z,101560.19
2022-09-01T00:51:29.106Z,101567.28
2022-09-01T00:53:59.750Z,101565.53
2022-09-01T00:56:27.524Z,101562.88
2022-09-01T00:58:55.534Z,101570.00
2022-09-01T01:01:24.572Z,101562.84
2022-09-01T01:03:52.311Z,101557.53
2022-09-01T01:06:26.833Z,101561.97
2022-09-01T01:08:58.932Z,101559.31
2022-09-01T01:11:30.178Z,101560.22
2022-09-01T01:14:00.871Z,101562.00
2022-09-01T01:16:30.510Z,101567.34
2022-09-01T01:18:58.531Z,101565.56
2022-09-01T01:21:58.456Z,101563.78
2022-09-01T01:24:28.225Z,101554.88
2022-09-01T01:26:57.412Z,101558.47
2022-09-01T01:29:25.565Z,101559.34
2022-09-01T01:31:54.523Z,101562.00
2022-09-01T01:34:23.419Z,101562.00
2022-09-01T01:36:52.082Z,101568.22
2022-09-01T01:39:25.371Z,101558.44
2022-09-01T01:41:57.480Z,101563.75
2022-09-01T01:44:28.395Z,101557.56
2022-09-01T01:46:59.925Z,101553.09
2022-09-01T01:49:31.119Z,101562.88
2022-09-01T01:51:59.111Z,101556.63
2022-09-01T01:54:31.375Z,101561.97
2022-09-01T01:57:02.097Z,101562.84
2022-09-01T01:59:29.901Z,101561.97
2022-09-01T02:01:58.450Z,101554.84
2022-09-01T02:04:26.241Z,101558.44
2022-09-01T02:06:55.885Z,101561.06
2022-09-01T02:09:23.932Z,101562.88
2022-09-01T02:11:57.155Z,101559.31
2022-09-01T02:14:26.532Z,101564.66
2022-09-01T02:16:56.014Z,101559.31
2022-09-01T02:19:23.955Z,101556.66
2022-09-01T02:21:54.377Z,101558.41
2022-09-01T02:24:22.116Z,101561.94
2022-09-01T02:26:50.071Z,101561.94
2022-09-01T02:29:22.019Z,101560.19
2022-09-01T02:31:54.846Z,101559.28
2022-09-01T02:34:24.598Z,101556.59
2022-09-01T02:36:55.994Z,101557.53
2022-09-01T02:39:28.160Z,101562.84
2022-09-01T02:41:56.580Z,101555.72
2022-09-01T02:44:27.863Z,101553.06
2022-09-01T02:46:56.961Z,101552.16
2022-09-01T02:49:28.280Z,101542.34
2022-09-01T02:52:01.907Z,101545.94
2022-09-01T02:54:33.490Z,101545.91
2022-09-01T02:57:01.929Z,101541.47
2022-09-01T02:59:32.143Z,101545.00
2022-09-01T03:02:02.779Z,101550.34
2022-09-01T03:04:35.404Z,101543.22
2022-09-01T03:07:05.059Z,101545.88
2022-09-01T03:09:35.163Z,101546.75
2022-09-01T03:12:03.180Z,101552.09
2022-09-01T03:14:32.024Z,101547.63
2022-09-01T03:17:00.692Z,101543.22
2022-09-01T03:19:40.536Z,101544.97
2022-09-01T03:22:08.557Z,101547.63
2022-09-01T03:24:37.211Z,101545.84
2022-09-01T03:27:05.141Z,101542.28
2022-09-01T03:29:33.241Z,101539.63
2022-09-01T03:32:01.685Z,101538.69
2022-09-01T03:34:34.390Z,101536.03
2022-09-01T03:37:07.905Z,101545.84
2022-09-01T03:39:35.856Z,101540.50
2022-09-01T03:42:03.548Z,101538.69
2022-09-01T03:44:33.995Z,101544.03
2022-09-01T03:47:01.651Z,101545.81
2022-09-01T03:49:31.756Z,101542.25
2022-09-01T03:52:01.271Z,101545.81
2022-09-01T03:54:30.620Z,101538.69
2022-09-01T03:56:59.950Z,101543.16
2022-09-01T03:59:29.956Z,101537.78
2022-09-01T04:01:59.863Z,101540.44
2022-09-01T04:04:27.950Z,101541.34
2022-09-01T04:06:56.989Z,101539.56
2022-09-01T04:09:24.675Z,101537.75
2022-09-01T04:11:53.055Z,101545.78
2022-09-01T04:14:21.812Z,101535.97
2022-09-01T04:17:22.500Z,101539.56
2022-09-01T04:19:50.129Z,101544.88
2022-09-01T04:22:21.098Z,101543.97
2022-09-01T04:24:48.829Z,101541.31
2022-09-01T04:27:18.495Z,101541.28
2022-09-01T04:29:46.928Z,101541.28
2022-09-01T04:32:15.778Z,101540.41
2022-09-01T04:34:47.013Z,101541.28
2022-09-01T04:37:21.188Z,101546.63
2022-09-01T04:39:57.132Z,101549.28
2022-09-01T04:42:27.293Z,101554.63
2022-09-01T04:44:57.545Z,101551.03
2022-09-01T04:47:36.326Z,101557.25
2022-09-01T04:50:14.022Z,101556.38
2022-09-01T04:52:45.933Z,101556.38
2022-09-01T04:55:28.729Z,101551.91
2022-09-01T04:57:57.775Z,101564.38
2022-09-01T05:00:31.885Z,101558.13
2022-09-01T05:03:04.379Z,101562.56
2022-09-01T05:05:53.987Z,101559.91
2022-09-01T05:08:24.899Z,101567.88
2022-09-01T05:10:56.892Z,101566.09
2022-09-01T05:13:56.204Z,101566.06
2022-09-01T05:16:25.797Z,101565.19
2022-09-01T05:18:58.403Z,101557.19
2022-09-01T05:21:30.791Z,101565.19
2022-09-01T05:24:03.863Z,101562.47
2022-09-01T05:26:34.624Z,101562.47
2022-09-01T05:29:10.621Z,101563.34
2022-09-01T05:31:38.980Z,101568.66
2022-09-01T05:34:08.011Z,101559.75
2022-09-01T05:36:36.280Z,101567.72
2022-09-01T05:39:07.599Z,101563.28
2022-09-01T05:41:35.781Z,101563.22
2022-09-01T05:44:08.112Z,101566.81
2022-09-01T05:46:39.455Z,101563.19
2022-09-01T05:49:09.250Z,101569.41
2022-09-01T05:51:50.279Z,101569.38
2022-09-01T05:54:27.454Z,101576.47
2022-09-01T05:57:00.160Z,101570.22
2022-09-01T05:59:36.040Z,101566.59
2022-09-01T06:02:12.352Z,101573.66
2022-09-01T06:04:42.161Z,101567.41
2022-09-01T06:07:16.476Z,101568.22
2022-09-01T06:09:54.082Z,101577.06
2022-09-01T06:12:24.958Z,101572.56
2022-09-01T06:14:55.415Z,101572.50
2022-09-01T06:17:25.993Z,101576.00
2022-09-01T06:19:57.635Z,101571.47
2022-09-01T06:22:27.976Z,101576.72
2022-09-01T06:25:02.218Z,101582.94
2022-09-01T06:27:38.746Z,101577.56
2022-09-01T06:30:14.951Z,101573.03
2022-09-01T06:32:49.710Z,101575.69
2022-09-01T06:35:17.981Z,101573.88
2022-09-01T06:37:47.158Z,101582.78
2022-09-01T06:40:28.699Z,101584.56
2022-09-01T06:42:56.893Z,101588.09
2022-09-01T06:45:26.126Z,101590.78
2022-09-01T06:47:57.735Z,101595.19
2022-09-01T06:53:45.546Z,101602.31
2022-09-01T06:56:13.506Z,101596.94
2022-09-01T06:58:44.984Z,101600.50
2022-09-01T07:01:15.444Z,101593.31
2022-09-01T07:03:44.069Z,101593.28
2022-09-01T07:12:27.876Z,101595.81
2022-09-01T07:17:49.019Z,101596.66
2022-09-01T07:20:26.124Z,101602.88
2022-09-01T07:23:04.402Z,101603.72
2022-09-01T07:25:48.387Z,101594.75
2022-09-01T07:28:39.828Z,101592.88
2022-09-01T07:38:48.062Z,101590.84
2022-09-01T07:39:51.990Z,101596.13
2022-09-01T07:45:58.325Z,101590.59
2022-09-01T07:49:01.317Z,101589.63
2022-09-01T07:51:36.903Z,101594.06
2022-09-01T07:54:06.166Z,101596.59
2022-09-01T07:56:39.734Z,101592.91
2022-09-01T07:59:09.503Z,101603.47
2022-09-01T08:01:52.595Z,101603.31
2022-09-01T08:04:23.021Z,101605.84
2022-09-01T08:06:51.828Z,101610.22
2022-09-01T08:09:37.195Z,101609.22
2022-09-01T08:12:07.306Z,101612.66
2022-09-01T08:14:39.054Z,101613.34
2022-09-01T08:17:17.482Z,101614.06
2022-09-01T08:19:59.332Z,101608.47
2022-09-01T08:22:53.173Z,101601.88
2022-09-01T08:25:42.103Z,101611.41
2022-09-01T08:28:10.089Z,101615.63
2022-09-01T08:30:40.587Z,101619.84
2022-09-01T08:33:11.742Z,101608.78
2022-09-01T08:35:45.330Z,101612.91
2022-09-01T08:38:13.128Z,101606.38
2022-09-01T08:40:44.107Z,101612.38
2022-09-01T08:43:25.796Z,101614.72
2022-09-01T08:45:56.726Z,101616.19
2022-09-01T08:51:28.412Z,101608.41
2022-09-01T08:54:05.622Z,101601.75
2022-09-01T08:56:35.457Z,101605.13
2022-09-01T08:59:03.888Z,101608.44
2022-09-01T09:01:55.341Z,101600.75
2022-09-01T09:04:39.736Z,101606.56
2022-09-01T09:07:15.166Z,101600.72
2022-09-01T09:09:54.280Z,101609.19
2022-09-01T09:12:48.905Z,101604.22
2022-09-01T09:15:25.512Z,101611.97
2022-09-01T09:18:00.991Z,101600.72
2022-09-01T09:20:30.463Z,101598.41
2022-09-01T09:22:59.642Z,101598.94
2022-09-01T09:25:29.714Z,101605.75
2022-09-01T09:28:00.993Z,101602.66
2022-09-01T09:30:31.446Z,101604.03
2022-09-01T09:35:54.361Z,101595.06
2022-09-01T09:38:29.012Z,101597.19
2022-09-01T09:41:19.875Z,101595.91
2022-09-01T09:43:55.909Z,101586.56
2022-09-01T09:46:27.502Z,101590.78
2022-09-01T09:49:10.007Z,101590.50
2022-09-01T09:51:42.305Z,101586.44
2022-09-01T09:54:16.548Z,101588.72
2022-09-01T09:56:45.591Z,101585.50
2022-09-01T09:59:39.810Z,101575.25
2022-09-01T10:02:27.410Z,101582.97
2022-09-01T10:04:57.223Z,101579.81
2022-09-01T10:07:37.861Z,101581.16
2022-09-01T10:10:07.917Z,101575.09
2022-09-01T10:12:36.060Z,101565.81
2022-09-01T10:15:11.661Z,101571.59
2022-09-01T10:17:43.520Z,101565.63
2022-09-01T10:20:17.003Z,101563.47
2022-09-01T10:22:48.589Z,101570.16
2022-09-01T10:25:21.729Z,101553.66
2022-09-01T10:27:55.034Z,101558.50
2022-09-01T10:30:23.592Z,101563.31
2022-09-01T10:32:56.415Z,101565.09
2022-09-01T10:35:28.080Z,101555.34
2022-09-01T10:37:59.447Z,101560.53
2022-09-01T10:40:43.873Z,101564.38
2022-09-01T10:43:36.364Z,101567.25
2022-09-01T10:46:50.981Z,101564.72
2022-09-01T10:49:35.745Z,101565.69
2022-09-01T10:52:07.574Z,101557.94
2022-09-01T10:55:02.581Z,101554.09
2022-09-01T10:57:42.872Z,101549.44
2022-09-01T11:01:10.530Z,101551.03
2022-09-01T11:03:57.662Z,101544.28
2022-09-01T11:07:11.916Z,101549.72
2022-09-01T11:09:41.947Z,101550.75
2022-09-01T11:12:29.133Z,101540.41
2022-09-01T11:15:00.106Z,101543.75
2022-09-01T11:17:33.580Z,101547.00
2022-09-01T11:20:08.764Z,101549.47
2022-09-01T11:22:40.734Z,101543.28
2022-09-01T11:25:41.421Z,101543.09
2022-09-01T11:28:44.109Z,101546.41
2022-09-01T11:31:24.009Z,101544.75
2022-09-01T11:34:04.696Z,101553.09
2022-09-01T11:36:36.152Z,101538.72
2022-09-01T11:39:08.320Z,101530.19
2022-09-01T11:41:55.769Z,101536.78
2022-09-01T11:44:32.853Z,101532.19
2022-09-01T11:47:07.018Z,101531.38
2022-09-01T11:49:41.643Z,101536.72
2022-09-01T11:52:16.951Z,101539.75
2022-09-01T11:54:46.533Z,101526.00
2022-09-01T11:57:23.734Z,101524.25
2022-09-01T11:59:53.332Z,101525.63
2022-09-01T12:02:25.222Z,101527.13
2022-09-01T12:04:54.976Z,101523.69
2022-09-01T12:07:31.224Z,101518.03
2022-09-01T12:09:59.212Z,101523.97
2022-09-01T12:12:33.729Z,101525.16
2022-09-01T12:15:07.161Z,101527.75
2022-09-01T12:17:35.094Z,101519.16
2022-09-01T12:20:30.996Z,101526.66
2022-09-01T12:23:02.243Z,101530.53
2022-09-01T12:25:33.176Z,101512.66
2022-09-01T12:28:01.917Z,101520.31
2022-09-01T12:30:35.298Z,101511.88
2022-09-01T12:35:57.471Z,101503.00
2022-09-01T12:38:31.349Z,101509.00
2022-09-01T12:40:59.902Z,101511.41
2022-09-01T12:43:37.082Z,101515.03
2022-09-01T12:46:09.262Z,101515.25
2022-09-01T12:48:40.901Z,101510.13
2022-09-01T12:51:20.314Z,101508.59
2022-09-01T12:53:54.185Z,101506.88
2022-09-01T12:56:27.862Z,101508.81
2022-09-01T12:59:14.124Z,101501.94
2022-09-01T13:01:44.757Z,101508.72
2022-09-01T13:04:25.947Z,101506.84
2022-09-01T13:06:54.483Z,101502.00
2022-09-01T13:09:22.572Z,101511.28
2022-09-01T13:12:07.100Z,101498.81
2022-09-01T13:14:35.193Z,101491.25
2022-09-01T13:17:04.599Z,101491.31
2022-09-01T13:19:32.244Z,101492.91
2022-09-01T13:21:59.875Z,101488.34
2022-09-01T13:24:30.372Z,101493.09
2022-09-01T13:29:47.439Z,101482.53
2022-09-01T13:32:18.884Z,101481.78
2022-09-01T13:34:50.461Z,101481.84
2022-09-01T13:37:19.681Z,101487.41
2022-09-01T13:39:48.502Z,101487.09
2022-09-01T13:42:16.581Z,101490.59
2022-09-01T13:44:44.869Z,101478.94
2022-09-01T13:47:28.920Z,101476.13
2022-09-01T13:50:08.414Z,101478.97
2022-09-01T13:52:39.663Z,101484.59
2022-09-01T13:55:08.958Z,101474.28
2022-09-01T13:57:37.042Z,101484.47
2022-09-01T14:00:07.727Z,101477.41
2022-09-01T14:02:38.091Z,101469.63
2022-09-01T14:05:08.372Z,101460.81
2022-09-01T14:07:36.185Z,101462.97
2022-09-01T14:10:05.060Z,101454.66
2022-09-01T14:12:32.766Z,101456.25
2022-09-01T14:15:18.085Z,101452.53
2022-09-01T14:17:49.486Z,101450.78
2022-09-01T14:20:21.951Z,101440.88
2022-09-01T14:22:51.283Z,101441.75
2022-09-01T14:25:20.938Z,101448.84
2022-09-01T14:27:49.648Z,101452.66
2022-09-01T14:30:19.363Z,101447.19
2022-09-01T14:32:47.655Z,101451.22
2022-09-01T14:35:16.925Z,101446.56
2022-09-01T14:37:46.153Z,101446.75
2022-09-01T14:40:16.417Z,101448.44
2022-09-01T14:42:49.088Z,101440.22
2022-09-01T14:45:18.655Z,101435.91
2022-09-01T14:47:46.812Z,101440.81
2022-09-01T14:50:17.219Z,101429.44
2022-09-01T14:52:49.989Z,101432.31
2022-09-01T14:55:17.869Z,101433.50
2022-09-01T14:57:45.542Z,101436.94
2022-09-01T15:00:13.937Z,101424.91
2022-09-01T15:02:43.449Z,101443.72
2022-09-01T15:05:12.847Z,101438.78
2022-09-01T15:07:41.514Z,101429.41
2022-09-01T15:10:15.818Z,101425.94
2022-09-01T15:12:52.429Z,101419.47
2022-09-01T15:15:20.060Z,101417.25
2022-09-01T15:17:47.695Z,101424.47
2022-09-01T15:20:32.897Z,101422.88
2022-09-01T15:23:02.113Z,101412.19
2022-09-01T15:25:31.264Z,101425.34
2022-09-01T15:27:58.889Z,101422.53
2022-09-01T15:30:27.965Z,101418.69
2022-09-01T15:32:55.999Z,101418.94
2022-09-01T15:35:24.425Z,101419.69
2022-09-01T15:37:52.852Z,101414.72
2022-09-01T15:40:21.300Z,101408.53
2022-09-01T15:42:50.674Z,101411.84
2022-09-01T15:45:21.832Z,101409.84
2022-09-01T15:47:49.861Z,101403.44
2022-09-01T15:50:22.120Z,101406.97
2022-09-01T15:52:53.018Z,101413.28
2022-09-01T15:55:22.963Z,101413.09
2022-09-01T15:57:55.010Z,101402.44
2022-09-01T16:00:24.552Z,101408.19
2022-09-01T16:02:54.286Z,101399.22
2022-09-01T16:05:22.179Z,101403.94
2022-09-01T16:07:51.941Z,101396.50
2022-09-01T16:10:19.857Z,101393.53
2022-09-01T16:12:48.142Z,101397.53
2022-09-01T16:15:20.555Z,101394.44
2022-09-01T16:18:15.725Z,101392.16
2022-09-01T16:20:55.604Z,101402.44
2022-09-01T16:23:26.255Z,101389.25
2022-09-01T16:25:54.649Z,101394.31
2022-09-01T16:28:27.767Z,101393.09
2022-09-01T16:31:03.234Z,101397.19
2022-09-01T16:33:33.002Z,101395.00
2022-09-01T16:36:11.544Z,101393.66
2022-09-01T16:38:47.887Z,101387.84
2022-09-01T16:41:39.668Z,101383.00
2022-09-01T16:44:18.481Z,101385.16
2022-09-01T16:46:56.430Z,101382.81
2022-09-01T16:49:35.928Z,101389.59
2022-09-01T16:52:11.019Z,101380.13
2022-09-01T16:54:50.236Z,101390.47
2022-09-01T16:57:27.978Z,101383.69
2022-09-01T16:59:57.428Z,101385.09
2022-09-01T17:02:38.396Z,101382.78
2022-09-01T17:05:16.818Z,101385.88
2022-09-01T17:07:52.396Z,101381.75
2022-09-01T17:10:32.788Z,101387.53
2022-09-01T17:13:14.319Z,101391.50
2022-09-01T17:15:43.957Z,101390.16
2022-09-01T17:18:23.004Z,101388.75
2022-09-01T17:20:58.023Z,101384.59
2022-09-01T17:23:30.804Z,101393.06
2022-09-01T17:26:03.577Z,101387.13
2022-09-01T17:28:36.056Z,101401.81
2022-09-01T17:31:14.226Z,101398.44
2022-09-01T17:33:57.475Z,101399.56
2022-09-01T17:36:46.106Z,101403.44
2022-09-01T17:39:25.120Z,101401.97
2022-09-01T17:41:57.510Z,101404.06
2022-09-01T17:44:36.512Z,101404.34
2022-09-01T17:47:12.977Z,101402.72
2022-09-01T17:49:50.500Z,101402.97
2022-09-01T17:52:24.146Z,101411.25
2022-09-01T17:55:00.011Z,101408.84
2022-09-01T17:57:38.759Z,101410.88
2022-09-01T18:00:10.715Z,101410.19
2022-09-01T18:03:04.715Z,101419.41
2022-09-01T18:05:40.936Z,101406.16
2022-09-01T18:08:19.221Z,101417.22
2022-09-01T18:10:51.348Z,101415.53
2022-09-01T18:13:30.921Z,101425.44
2022-09-01T18:16:15.859Z,101420.09
2022-09-01T18:18:46.171Z,101418.50
2022-09-01T18:21:18.493Z,101412.59
2022-09-01T18:23:47.752Z,101422.72
2022-09-01T18:26:26.344Z,101414.94
2022-09-01T18:28:55.069Z,101417.06
2022-09-01T18:31:37.499Z,101417.38
2022-09-01T18:34:14.899Z,101422.16
2022-09-01T18:36:54.940Z,101424.28
2022-09-01T18:39:33.957Z,101426.28
2022-09-01T18:42:11.726Z,101429.28
2022-09-01T18:44:52.781Z,101432.22
2022-09-01T18:47:30.913Z,101434.22
2022-09-01T18:50:07.209Z,101430.94
2022-09-01T18:53:00.178Z,101434.78
2022-09-01T18:55:38.934Z,101436.81
2022-09-01T18:58:11.347Z,101445.09
2022-09-01T19:00:52.176Z,101444.41
2022-09-01T19:03:27.602Z,101434.72
2022-09-01T19:06:30.383Z,101444.78
2022-09-01T19:09:14.368Z,101440.44
2022-09-01T19:11:55.596Z,101440.66
2022-09-01T19:14:31.488Z,101442.56
2022-09-01T19:17:16.203Z,101440.00
2022-09-01T19:19:48.973Z,101443.78
2022-09-01T19:22:22.260Z,101445.72
2022-09-01T19:25:18.138Z,101437.78
2022-09-01T19:27:54.787Z,101444.22
2022-09-01T19:30:22.410Z,101450.63
2022-09-01T19:32:51.472Z,101448.97
2022-09-01T19:35:19.672Z,101445.56
2022-09-01T19:37:51.164Z,101454.53
2022-09-01T19:40:26.362Z,101452.00
2022-09-01T19:42:58.414Z,101444.06
2022-09-01T19:45:30.703Z,101454.03
2022-09-01T19:48:07.202Z,101455.06
2022-09-01T19:50:40.582Z,101451.56
2022-09-01T19:53:12.501Z,101457.03
2022-09-01T19:55:48.743Z,101454.47
2022-09-01T19:58:22.385Z,101460.81
2022-09-01T20:00:55.038Z,101456.44
2022-09-01T20:03:26.972Z,101460.06
2022-09-01T20:05:58.390Z,101465.53
2022-09-01T20:08:30.281Z,101460.22
2022-09-01T20:11:05.220Z,101466.53
2022-09-01T20:14:00.973Z,101474.66
2022-09-01T20:16:33.556Z,101468.50
2022-09-01T20:19:05.433Z,101457.81
2022-09-01T20:21:40.070Z,101451.63
2022-09-01T20:24:12.639Z,101454.34
2022-09-01T20:26:47.016Z,101457.09
2022-09-01T20:29:22.070Z,101451.78
2022-09-01T20:31:53.467Z,101457.25
2022-09-01T20:34:30.066Z,101454.59
2022-09-01T20:37:03.338Z,101453.75
2022-09-01T20:39:57.267Z,101462.69
2022-09-01T20:42:34.475Z,101464.53
2022-09-01T20:45:10.632Z,101449.28
2022-09-01T20:47:38.267Z,101460.03
2022-09-01T20:50:12.159Z,101458.28
2022-09-01T20:52:49.454Z,101462.72
2022-09-01T20:55:24.579Z,101451.16
2022-09-01T20:58:06.043Z,101461.00
2022-09-01T21:00:42.823Z,101461.03
2022-09-01T21:03:21.832Z,101459.28
2022-09-01T21:06:08.165Z,101456.69
2022-09-01T21:08:49.830Z,101460.28
2022-09-01T21:11:27.525Z,101463.91
2022-09-01T21:14:13.991Z,101461.25
2022-09-01T21:16:54.380Z,101465.75
2022-09-01T21:19:30.572Z,101462.22
2022-09-01T21:22:06.075Z,101459.59
2022-09-01T21:24:34.513Z,101465.00
2022-09-01T21:27:06.881Z,101471.31
2022-09-01T21:29:48.224Z,101469.56
2022-09-01T21:32:16.530Z,101472.28
2022-09-01T21:34:44.316Z,101467.84
2022-09-01T21:37:12.541Z,101461.63
2022-09-01T21:39:40.644Z,101468.81
2022-09-01T21:42:10.744Z,101460.78
2022-09-01T21:44:41.285Z,101476.91
2022-09-01T21:47:09.024Z,101472.47
2022-09-01T21:49:37.703Z,101468.94
2022-09-01T21:52:06.320Z,101465.34
2022-09-01T21:54:34.957Z,101461.78
2022-09-01T21:57:02.650Z,101463.59
2022-09-01T21:59:30.720Z,101460.94
2022-09-01T22:02:00.666Z,101460.94
2022-09-01T22:04:28.518Z,101469.03
2022-09-01T22:06:56.232Z,101461.00
2022-09-01T22:09:23.870Z,101461.03
2022-09-01T22:11:52.497Z,101462.84
2022-09-01T22:14:21.627Z,101462.00
2022-09-01T22:16:50.728Z,101463.84
2022-09-01T22:19:20.262Z,101460.34
2022-09-01T22:21:48.369Z,101459.53
2022-09-01T22:24:19.077Z,101459.56
2022-09-01T22:26:48.520Z,101462.25
2022-09-01T22:29:17.434Z,101467.66
2022-09-01T22:31:45.689Z,101466.81
2022-09-01T22:34:13.586Z,101465.06
2022-09-01T22:36:44.820Z,101471.34
2022-09-01T22:39:13.462Z,101460.66
2022-09-01T22:41:42.284Z,101456.25
2022-09-01T22:44:11.071Z,101456.25
2022-09-01T22:46:39.930Z,101459.00
2022-09-01T22:49:08.895Z,101453.72
2022-09-01T22:51:39.032Z,101457.31
2022-09-01T22:54:08.930Z,101451.13
2022-09-01T22:56:39.518Z,101461.91
2022-09-01T22:59:11.755Z,101454.81
2022-09-01T23:01:43.018Z,101451.34
2022-09-01T23:04:12.741Z,101443.34
2022-09-01T23:06:43.075Z,101447.88
2022-09-01T23:09:12.954Z,101442.56
2022-09-01T23:11:41.488Z,101445.31
2022-09-01T23:14:09.210Z,101450.72
2022-09-01T23:16:37.044Z,101445.41
2022-09-01T23:19:06.099Z,101447.22
2022-09-01T23:21:36.233Z,101442.84
2022-09-01T23:24:05.404Z,101450.00
2022-09-01T23:26:35.167Z,101447.34
2022-09-01T23:29:03.708Z,101449.16
2022-09-01T23:31:34.628Z,101439.41
2022-09-01T23:34:02.859Z,101443.88
2022-09-01T23:36:30.897Z,101441.25
2022-09-01T23:38:58.832Z,101440.41
2022-09-01T23:41:31.031Z,101437.75
2022-09-01T23:44:03.454Z,101445.78
2022-09-01T23:46:33.076Z,101438.69
2022-09-01T23:49:00.734Z,101435.16
2022-09-01T23:51:28.451Z,101436.06
2022-09-01T23:53:56.126Z,101438.78
2022-09-01T23:56:27.538Z,101435.22
2022-09-01T23:58:55.269Z,101434.34
